Time,TemperatureF,DewpointF,PressureIn,WindDirection,WindDirectionDegrees,WindSpeedMPH,WindSpeedGustMPH,Humidity,HourlyPrecipIn,Conditions,Clouds,dailyrainin,SoftwareType,DateUTC
2013-03-05 00:00:00,26.1,11.7,29.50,NW,311,2.7,2.7,54,0.00,,---,0.00,VWS V13.01,2013-03-05 05:00:00,
2013-03-05 00:05:00,26.1,11.7,29.50,NW,311,2.7,2.7,54,0.00,,---,0.00,VWS V13.01,2013-03-05 05:05:00,
2013-03-05 00:10:00,26.1,11.7,29.50,NW,311,2.7,2.7,54,0.00,,---,0.00,VWS V13.01,2013-03-05 05:10:00,
2013-03-05 00:15:00,26.1,11.7,29.50,WNW,294,5.4,5.4,54,0.00,,---,0.00,VWS V13.01,2013-03-05 05:15:00,
2013-03-05 00:20:00,25.9,11.5,29.50,NW,309,4.0,4.0,54,0.00,,---,0.00,VWS V13.01,2013-03-05 05:20:00,
2013-03-05 00:25:00,25.9,11.5,29.50,WNW,303,3.6,3.6,54,0.00,,---,0.00,VWS V13.01,2013-03-05 05:25:00,
2013-03-05 00:30:00,25.7,11.8,29.50,NW,306,5.4,5.4,55,0.00,,---,0.00,VWS V13.01,2013-03-05 05:30:00,
2013-03-05 00:35:00,25.7,11.8,29.50,WNW,294,4.9,4.9,55,0.00,,---,0.00,VWS V13.01,2013-03-05 05:35:00,
2013-03-05 00:40:00,25.7,11.8,29.50,WNW,302,3.6,3.6,55,0.00,,---,0.00,VWS V13.01,2013-03-05 05:40:00,
2013-03-05 00:45:00,25.5,11.2,29.50,WNW,301,5.4,5.4,54,0.00,,---,0.00,VWS V13.01,2013-03-05 05:45:00,
2013-03-05 00:50:00,25.5,11.2,29.50,WNW,302,5.4,5.4,54,0.00,,---,0.00,VWS V13.01,2013-03-05 05:50:00,
2013-03-05 00:55:00,25.5,11.2,29.50,NW,321,4.9,4.9,54,0.00,,---,0.00,VWS V13.01,2013-03-05 05:55:00,
2013-03-05 01:00:00,25.3,11.0,29.50,NW,325,3.1,3.1,54,0.00,,---,0.00,VWS V13.01,2013-03-05 06:00:00,
2013-03-05 01:05:00,25.3,11.0,29.50,WNW,297,3.6,3.6,54,0.00,,---,0.00,VWS V13.01,2013-03-05 06:05:00,
2013-03-05 01:10:00,25.3,11.0,29.50,WNW,288,4.0,4.0,54,0.00,,---,0.00,VWS V13.01,2013-03-05 06:10:00,
2013-03-05 01:15:00,25.0,11.1,29.50,NW,306,3.6,3.6,55,0.00,,---,0.00,VWS V13.01,2013-03-05 06:15:00,
2013-03-05 01:20:00,25.0,11.5,29.50,WNW,295,4.9,4.9,56,0.00,,---,0.00,VWS V13.01,2013-03-05 06:20:00,
2013-03-05 01:25:00,25.0,11.5,29.50,WNW,290,4.0,4.0,56,0.00,,---,0.00,VWS V13.01,2013-03-05 06:25:00,
2013-03-05 01:30:00,24.8,11.7,29.50,NW,304,2.7,3.1,57,0.00,,---,0.00,VWS V13.01,2013-03-05 06:30:00,
2013-03-05 01:35:00,24.4,11.4,29.50,NW,304,2.7,2.7,57,0.00,,---,0.00,VWS V13.01,2013-03-05 06:35:00,
2013-03-05 01:40:00,24.1,11.1,29.50,WNW,298,2.2,2.2,57,0.00,,---,0.00,VWS V13.01,2013-03-05 06:40:00,
2013-03-05 01:45:00,24.1,11.1,29.50,NW,309,0.0,0.0,57,0.00,,---,0.00,VWS V13.01,2013-03-05 06:45:00,
2013-03-05 01:50:00,23.7,11.1,29.50,NW,308,2.2,2.2,58,0.00,,---,0.00,VWS V13.01,2013-03-05 06:50:00,
2013-03-05 01:55:00,23.7,11.1,29.50,NW,308,2.7,2.7,58,0.00,,---,0.00,VWS V13.01,2013-03-05 06:55:00,
2013-03-05 02:00:00,23.5,11.3,29.50,NW,308,3.1,3.1,59,0.00,,---,0.00,VWS V13.01,2013-03-05 07:00:00,
2013-03-05 02:04:00,23.4,11.2,29.50,NW,308,0.0,2.2,59,0.00,,---,0.00,VWS V13.01,2013-03-05 07:04:00,
2013-03-05 02:09:00,23.2,11.4,29.50,NW,308,0.0,0.0,60,0.00,,---,0.00,VWS V13.01,2013-03-05 07:09:00,
2013-03-05 02:14:00,23.0,11.2,29.50,WNW,303,2.2,2.7,60,0.00,,---,0.00,VWS V13.01,2013-03-05 07:14:00,
2013-03-05 02:19:00,23.0,11.2,29.50,WNW,302,2.2,2.2,60,0.00,,---,0.00,VWS V13.01,2013-03-05 07:19:00,
2013-03-05 02:24:00,22.8,11.4,29.50,WNW,302,2.2,2.2,61,0.00,,---,0.00,VWS V13.01,2013-03-05 07:24:00,
2013-03-05 02:29:00,22.6,11.2,29.50,WNW,303,0.0,0.0,61,0.00,,---,0.00,VWS V13.01,2013-03-05 07:29:00,
2013-03-05 02:34:00,22.5,11.1,29.50,WNW,303,0.0,0.0,61,0.00,,---,0.00,VWS V13.01,2013-03-05 07:34:00,
2013-03-05 02:39:00,22.5,11.4,29.50,WNW,303,0.0,0.0,62,0.00,,---,0.00,VWS V13.01,2013-03-05 07:39:00,
2013-03-05 02:44:00,22.5,11.4,29.50,WNW,303,0.0,0.0,62,0.00,,---,0.00,VWS V13.01,2013-03-05 07:44:00,
2013-03-05 02:49:00,22.3,11.2,29.50,WNW,303,0.0,0.0,62,0.00,,---,0.00,VWS V13.01,2013-03-05 07:49:00,
2013-03-05 02:54:00,22.3,11.2,29.50,WNW,303,0.0,0.0,62,0.00,,---,0.00,VWS V13.01,2013-03-05 07:54:00,
2013-03-05 02:59:00,22.1,11.1,29.50,WNW,303,0.0,0.0,62,0.00,,---,0.00,VWS V13.01,2013-03-05 07:59:00,
2013-03-05 03:04:00,22.1,11.1,29.50,WNW,303,0.0,0.0,62,0.00,,---,0.00,VWS V13.01,2013-03-05 08:04:00,
2013-03-05 03:09:00,21.9,10.9,29.50,WNW,303,0.0,0.0,62,0.00,,---,0.00,VWS V13.01,2013-03-05 08:09:00,
2013-03-05 03:14:00,21.9,10.9,29.50,WNW,301,2.7,2.7,62,0.00,,---,0.00,VWS V13.01,2013-03-05 08:14:00,
2013-03-05 03:19:00,21.7,10.7,29.50,WNW,300,2.7,2.7,62,0.00,,---,0.00,VWS V13.01,2013-03-05 08:19:00,
2013-03-05 03:24:00,21.7,10.7,29.50,WNW,286,3.1,3.1,62,0.00,,---,0.00,VWS V13.01,2013-03-05 08:24:00,
2013-03-05 03:29:00,21.7,10.7,29.50,WNW,301,3.6,3.6,62,0.00,,---,0.00,VWS V13.01,2013-03-05 08:29:00,
2013-03-05 03:34:00,21.7,10.7,29.50,NW,304,2.7,4.0,62,0.00,,---,0.00,VWS V13.01,2013-03-05 08:34:00,
2013-03-05 03:39:00,21.6,10.9,29.50,WNW,300,3.1,3.1,63,0.00,,---,0.00,VWS V13.01,2013-03-05 08:39:00,
2013-03-05 03:44:00,21.6,10.9,29.50,WNW,302,3.6,4.0,63,0.00,,---,0.00,VWS V13.01,2013-03-05 08:44:00,
2013-03-05 03:49:00,21.6,10.9,29.50,WNW,302,3.6,4.0,63,0.00,,---,0.00,VWS V13.01,2013-03-05 08:49:00,
2013-03-05 03:54:00,21.4,11.1,29.50,WNW,297,4.0,4.0,64,0.00,,---,0.00,VWS V13.01,2013-03-05 08:54:00,
2013-03-05 03:59:00,21.4,11.1,29.53,West,278,2.7,2.7,64,0.00,,---,0.00,VWS V13.01,2013-03-05 08:59:00,
2013-03-05 04:04:00,21.2,11.3,29.53,West,268,3.6,3.6,65,0.00,,---,0.00,VWS V13.01,2013-03-05 09:04:00,
2013-03-05 04:09:00,21.2,11.3,29.53,WNW,284,2.7,2.7,65,0.00,,---,0.00,VWS V13.01,2013-03-05 09:09:00,
2013-03-05 04:14:00,21.2,11.3,29.53,WNW,285,4.0,4.0,65,0.00,,---,0.00,VWS V13.01,2013-03-05 09:14:00,
2013-03-05 04:19:00,21.2,11.3,29.53,WNW,303,3.6,3.6,65,0.00,,---,0.00,VWS V13.01,2013-03-05 09:19:00,
2013-03-05 04:24:00,21.2,11.3,29.53,WNW,299,4.0,4.0,65,0.00,,---,0.00,VWS V13.01,2013-03-05 09:24:00,
2013-03-05 04:29:00,21.2,11.3,29.53,NW,311,4.0,5.8,65,0.00,,---,0.00,VWS V13.01,2013-03-05 09:29:00,
2013-03-05 04:34:00,21.0,11.1,29.53,WNW,298,2.7,2.7,65,0.00,,---,0.00,VWS V13.01,2013-03-05 09:34:00,
2013-03-05 04:39:00,21.0,11.1,29.53,WNW,290,5.4,5.4,65,0.00,,---,0.00,VWS V13.01,2013-03-05 09:39:00,
2013-03-05 04:44:00,21.0,11.1,29.53,WNW,298,5.8,5.8,65,0.00,,---,0.00,VWS V13.01,2013-03-05 09:44:00,
2013-03-05 04:49:00,21.0,10.8,29.53,NW,307,4.0,4.0,64,0.00,,---,0.00,VWS V13.01,2013-03-05 09:49:00,
2013-03-05 04:54:00,21.0,10.8,29.53,NW,308,5.8,5.8,64,0.00,,---,0.00,VWS V13.01,2013-03-05 09:54:00,
2013-03-05 04:59:00,21.0,10.8,29.53,West,272,4.9,4.9,64,0.00,,---,0.00,VWS V13.01,2013-03-05 09:59:00,
2013-03-05 05:04:00,20.7,10.4,29.53,WNW,297,3.6,3.6,64,0.00,,---,0.00,VWS V13.01,2013-03-05 10:04:00,
2013-03-05 05:09:00,20.7,10.8,29.53,WNW,297,3.6,3.6,65,0.00,,---,0.00,VWS V13.01,2013-03-05 10:09:00,
2013-03-05 05:14:00,20.5,10.6,29.53,WNW,289,3.6,3.6,65,0.00,,---,0.00,VWS V13.01,2013-03-05 10:14:00,
2013-03-05 05:19:00,20.5,10.6,29.53,NW,305,2.2,2.2,65,0.00,,---,0.00,VWS V13.01,2013-03-05 10:19:00,
2013-03-05 05:24:00,20.5,10.9,29.53,NW,305,2.2,2.2,66,0.00,,---,0.00,VWS V13.01,2013-03-05 10:24:00,
2013-03-05 05:29:00,20.3,10.8,29.53,WNW,297,2.2,2.2,66,0.00,,---,0.00,VWS V13.01,2013-03-05 10:29:00,
2013-03-05 05:34:00,20.3,10.8,29.53,WNW,297,2.2,2.2,66,0.00,,---,0.00,VWS V13.01,2013-03-05 10:34:00,
2013-03-05 05:39:00,20.3,11.1,29.53,WNW,297,2.2,2.2,67,0.00,,---,0.00,VWS V13.01,2013-03-05 10:39:00,
2013-03-05 05:44:00,20.3,11.1,29.53,WNW,297,2.2,2.2,67,0.00,,---,0.00,VWS V13.01,2013-03-05 10:44:00,
2013-03-05 05:49:00,20.3,11.1,29.53,WNW,297,2.2,2.2,67,0.00,,---,0.00,VWS V13.01,2013-03-05 10:49:00,
2013-03-05 05:54:00,20.3,11.1,29.53,WNW,297,2.2,2.2,67,0.00,,---,0.00,VWS V13.01,2013-03-05 10:54:00,
2013-03-05 05:59:00,20.1,11.3,29.53,WNW,297,2.2,2.2,68,0.00,,---,0.00,VWS V13.01,2013-03-05 10:59:00,
2013-03-05 06:04:00,20.1,11.3,29.53,WNW,297,2.2,2.2,68,0.00,,---,0.00,VWS V13.01,2013-03-05 11:04:00,
2013-03-05 06:09:00,20.1,11.3,29.53,WNW,303,2.2,2.2,68,0.00,,---,0.00,VWS V13.01,2013-03-05 11:09:00,
2013-03-05 06:14:00,20.1,11.3,29.53,WNW,293,3.6,3.6,68,0.00,,---,0.00,VWS V13.01,2013-03-05 11:14:00,
2013-03-05 06:19:00,20.1,11.3,29.53,WNW,282,4.0,4.0,68,0.00,,---,0.00,VWS V13.01,2013-03-05 11:19:00,
2013-03-05 06:24:00,19.9,11.1,29.53,WNW,296,0.0,0.0,68,0.00,,---,0.00,VWS V13.01,2013-03-05 11:24:00,
2013-03-05 06:29:00,19.9,11.4,29.53,WNW,297,2.7,2.7,69,0.00,,---,0.00,VWS V13.01,2013-03-05 11:29:00,
2013-03-05 06:34:00,19.9,11.4,29.53,NW,304,2.7,2.7,69,0.00,,---,0.00,VWS V13.01,2013-03-05 11:34:00,
2013-03-05 06:39:00,19.9,11.4,29.53,NW,304,2.2,2.2,69,0.00,,---,0.00,VWS V13.01,2013-03-05 11:39:00,
2013-03-05 06:44:00,19.8,11.2,29.53,WNW,298,0.0,0.0,69,0.00,,---,0.00,VWS V13.01,2013-03-05 11:44:00,
2013-03-05 06:49:00,19.8,11.2,29.50,NW,310,0.0,0.0,69,0.00,,---,0.00,VWS V13.01,2013-03-05 11:49:00,
2013-03-05 06:54:00,19.8,11.2,29.50,NW,310,0.0,0.0,69,0.00,,---,0.00,VWS V13.01,2013-03-05 11:54:00,
2013-03-05 06:59:00,19.8,11.6,29.50,NW,310,0.0,0.0,70,0.00,,---,0.00,VWS V13.01,2013-03-05 11:59:00,
2013-03-05 07:04:00,19.9,11.8,29.50,NW,310,0.0,0.0,70,0.00,,---,0.00,VWS V13.01,2013-03-05 12:04:00,
2013-03-05 07:09:00,19.9,11.8,29.50,NW,310,2.7,2.7,70,0.00,,---,0.00,VWS V13.01,2013-03-05 12:09:00,
2013-03-05 07:14:00,20.1,11.9,29.50,NW,310,0.0,0.0,70,0.00,,---,0.00,VWS V13.01,2013-03-05 12:14:00,
2013-03-05 07:19:00,20.3,12.1,29.50,NW,310,2.7,2.7,70,0.00,,---,0.00,VWS V13.01,2013-03-05 12:19:00,
2013-03-05 07:24:00,20.3,12.1,29.50,NW,310,0.0,0.0,70,0.00,,---,0.00,VWS V13.01,2013-03-05 12:24:00,
2013-03-05 07:29:00,20.5,12.3,29.53,WNW,298,2.7,2.7,70,0.00,,---,0.00,VWS V13.01,2013-03-05 12:29:00,
2013-03-05 07:34:00,20.7,12.1,29.53,NW,308,2.7,2.7,69,0.00,,---,0.00,VWS V13.01,2013-03-05 12:34:00,
2013-03-05 07:39:00,20.8,12.3,29.53,WNW,300,2.7,2.7,69,0.00,,---,0.00,VWS V13.01,2013-03-05 12:39:00,
2013-03-05 07:44:00,20.8,12.3,29.53,WNW,289,2.2,2.2,69,0.00,,---,0.00,VWS V13.01,2013-03-05 12:44:00,
2013-03-05 07:49:00,21.4,12.5,29.53,NW,308,0.0,0.0,68,0.00,,---,0.00,VWS V13.01,2013-03-05 12:49:00,
2013-03-05 07:54:00,21.9,13.0,29.53,NW,308,0.0,0.0,68,0.00,,---,0.00,VWS V13.01,2013-03-05 12:54:00,
2013-03-05 07:59:00,22.1,12.8,29.53,WNW,286,3.1,3.1,67,0.00,,---,0.00,VWS V13.01,2013-03-05 12:59:00,
2013-03-05 08:04:00,22.5,12.8,29.50,WNW,299,3.1,3.1,66,0.00,,---,0.00,VWS V13.01,2013-03-05 13:04:00,
2013-03-05 08:09:00,22.8,13.2,29.50,WNW,299,3.1,3.1,66,0.00,,---,0.00,VWS V13.01,2013-03-05 13:09:00,
2013-03-05 08:14:00,23.2,13.2,29.50,WNW,301,0.0,0.0,65,0.00,,---,0.00,VWS V13.01,2013-03-05 13:14:00,
2013-03-05 08:19:00,23.5,12.8,29.50,NW,322,2.7,2.7,63,0.00,,---,0.00,VWS V13.01,2013-03-05 13:19:00,
2013-03-05 08:24:00,23.7,12.6,29.50,NW,322,2.7,2.7,62,0.00,,---,0.00,VWS V13.01,2013-03-05 13:24:00,
2013-03-05 08:29:00,24.4,12.6,29.50,NW,322,2.7,2.7,60,0.00,,---,0.00,VWS V13.01,2013-03-05 13:29:00,
2013-03-05 08:34:00,24.4,12.6,29.50,NW,322,2.7,2.7,60,0.00,,---,0.00,VWS V13.01,2013-03-05 13:34:00,
2013-03-05 08:39:00,25.2,12.5,29.50,NW,322,2.7,2.7,58,0.00,,---,0.00,VWS V13.01,2013-03-05 13:39:00,
2013-03-05 08:44:00,25.9,13.1,29.50,NW,322,2.7,2.7,58,0.00,,---,0.00,VWS V13.01,2013-03-05 13:44:00,
2013-03-05 08:49:00,25.9,13.1,29.50,NW,322,2.7,2.7,58,0.00,,---,0.00,VWS V13.01,2013-03-05 13:49:00,
2013-03-05 08:53:00,26.8,12.4,29.50,NW,322,2.7,2.7,54,0.00,,---,0.00,VWS V13.01,2013-03-05 13:53:00,
2013-03-05 08:58:00,26.8,12.4,29.50,NW,322,2.7,2.7,54,0.00,,---,0.00,VWS V13.01,2013-03-05 13:58:00,
2013-03-05 09:03:00,28.0,13.1,29.50,NW,322,2.7,2.7,53,0.00,,---,0.00,VWS V13.01,2013-03-05 14:03:00,
2013-03-05 09:08:00,28.6,12.3,29.50,NNW,327,3.1,3.1,50,0.00,,---,0.00,VWS V13.01,2013-03-05 14:08:00,
2013-03-05 09:13:00,28.6,12.3,29.50,NNW,330,3.1,3.1,50,0.00,,---,0.00,VWS V13.01,2013-03-05 14:13:00,
2013-03-05 09:18:00,28.8,11.1,29.50,NE,46,6.3,6.3,47,0.00,,---,0.00,VWS V13.01,2013-03-05 14:18:00,
2013-03-05 09:23:00,28.6,12.3,29.50,NNE,15,3.1,3.6,50,0.00,,---,0.00,VWS V13.01,2013-03-05 14:23:00,
2013-03-05 09:28:00,28.8,11.6,29.50,North,2,4.0,4.0,48,0.00,,---,0.00,VWS V13.01,2013-03-05 14:28:00,
2013-03-05 09:33:00,28.8,11.6,29.50,NNE,23,5.4,5.4,48,0.00,,---,0.00,VWS V13.01,2013-03-05 14:33:00,
2013-03-05 09:38:00,28.8,11.6,29.50,NE,55,5.4,5.4,48,0.00,,---,0.00,VWS V13.01,2013-03-05 14:38:00,
2013-03-05 09:43:00,28.0,10.9,29.50,ENE,66,5.8,5.8,48,0.00,,---,0.00,VWS V13.01,2013-03-05 14:43:00,
2013-03-05 09:48:00,28.0,10.9,29.50,NW,318,3.1,5.8,48,0.00,,---,0.00,VWS V13.01,2013-03-05 14:48:00,
2013-03-05 09:53:00,28.8,11.1,29.50,NNW,346,0.0,2.7,47,0.00,,---,0.00,VWS V13.01,2013-03-05 14:53:00,
2013-03-05 09:58:00,29.5,11.3,29.50,NNW,328,0.0,3.6,46,0.00,,---,0.00,VWS V13.01,2013-03-05 14:58:00,
2013-03-05 10:03:00,30.2,10.9,29.50,NNE,32,4.0,4.0,44,0.00,,---,0.00,VWS V13.01,2013-03-05 15:03:00,
2013-03-05 10:08:00,29.7,10.4,29.50,ENE,74,4.0,4.0,44,0.00,,---,0.00,VWS V13.01,2013-03-05 15:08:00,
2013-03-05 10:13:00,29.7,10.4,29.50,ENE,66,4.9,4.9,44,0.00,,---,0.00,VWS V13.01,2013-03-05 15:13:00,
2013-03-05 10:18:00,30.6,10.7,29.50,ENE,58,5.4,5.4,43,0.00,,---,0.00,VWS V13.01,2013-03-05 15:18:00,
2013-03-05 10:23:00,30.6,10.2,29.50,North,10,2.7,4.0,42,0.00,,---,0.00,VWS V13.01,2013-03-05 15:23:00,
2013-03-05 10:28:00,31.3,11.4,29.50,NE,36,2.7,2.7,43,0.00,,---,0.00,VWS V13.01,2013-03-05 15:28:00,
2013-03-05 10:33:00,32.5,11.5,29.50,NE,52,2.2,4.9,41,0.00,,---,0.00,VWS V13.01,2013-03-05 15:33:00,
2013-03-05 10:38:00,32.7,11.6,29.50,WNW,294,4.0,4.0,41,0.00,,---,0.00,VWS V13.01,2013-03-05 15:38:00,
2013-03-05 10:43:00,32.9,11.8,29.50,NW,314,0.0,0.0,41,0.00,,---,0.00,VWS V13.01,2013-03-05 15:43:00,
2013-03-05 10:48:00,32.9,11.8,29.50,NW,309,0.0,0.0,41,0.00,,---,0.00,VWS V13.01,2013-03-05 15:48:00,
2013-03-05 10:53:00,33.6,12.4,29.50,NW,307,0.0,0.0,41,0.00,,---,0.00,VWS V13.01,2013-03-05 15:53:00,
2013-03-05 10:58:00,33.6,12.4,29.50,NNE,33,4.0,4.0,41,0.00,,---,0.00,VWS V13.01,2013-03-05 15:58:00,
2013-03-05 11:03:00,32.7,11.6,29.50,WNW,300,2.2,4.5,41,0.00,,---,0.00,VWS V13.01,2013-03-05 16:03:00,
2013-03-05 11:08:00,32.4,11.3,29.50,East,81,3.1,3.1,41,0.00,,---,0.00,VWS V13.01,2013-03-05 16:08:00,
2013-03-05 11:13:00,32.4,11.3,29.50,East,90,0.0,0.0,41,0.00,,---,0.00,VWS V13.01,2013-03-05 16:13:00,
2013-03-05 11:18:00,34.2,12.9,29.50,North,4,3.1,3.1,41,0.00,,---,0.00,VWS V13.01,2013-03-05 16:18:00,
2013-03-05 11:23:00,34.3,12.5,29.50,NNW,340,0.0,3.1,40,0.00,,---,0.00,VWS V13.01,2013-03-05 16:23:00,
2013-03-05 11:28:00,35.2,13.4,29.50,NNW,340,0.0,0.0,40,0.00,,---,0.00,VWS V13.01,2013-03-05 16:28:00,
2013-03-05 11:33:00,35.2,13.4,29.50,NNW,340,0.0,0.0,40,0.00,,---,0.00,VWS V13.01,2013-03-05 16:33:00,
2013-03-05 11:38:00,34.7,12.9,29.50,NNW,340,0.0,0.0,40,0.00,,---,0.00,VWS V13.01,2013-03-05 16:38:00,
2013-03-05 11:43:00,34.3,12.5,29.50,NNW,340,0.0,0.0,40,0.00,,---,0.00,VWS V13.01,2013-03-05 16:43:00,
2013-03-05 11:48:00,33.6,11.9,29.50,NNW,340,0.0,0.0,40,0.00,,---,0.00,VWS V13.01,2013-03-05 16:48:00,
2013-03-05 11:53:00,34.0,12.2,29.50,NNW,340,0.0,0.0,40,0.00,,---,0.00,VWS V13.01,2013-03-05 16:53:00,
2013-03-05 11:58:00,35.1,13.2,29.50,NNW,340,0.0,0.0,40,0.00,,---,0.00,VWS V13.01,2013-03-05 16:58:00,
2013-03-05 12:03:00,35.4,13.5,29.50,NE,42,2.7,2.7,40,0.00,,---,0.00,VWS V13.01,2013-03-05 17:03:00,
2013-03-05 12:08:00,37.4,14.7,29.50,NE,42,2.7,2.7,39,0.00,,---,0.00,VWS V13.01,2013-03-05 17:08:00,
2013-03-05 12:13:00,38.8,15.4,29.50,NE,46,0.0,0.0,38,0.00,,---,0.00,VWS V13.01,2013-03-05 17:13:00,
2013-03-05 12:18:00,39.7,13.7,29.50,WNW,300,5.4,5.4,34,0.00,,---,0.00,VWS V13.01,2013-03-05 17:18:00,
2013-03-05 12:23:00,39.7,13.7,29.50,WNW,289,6.3,6.3,34,0.00,,---,0.00,VWS V13.01,2013-03-05 17:23:00,
2013-03-05 12:28:00,36.0,12.2,29.50,WNW,303,4.0,4.0,37,0.00,,---,0.00,VWS V13.01,2013-03-05 17:28:00,
2013-03-05 12:33:00,34.7,12.9,29.50,NNW,330,5.4,5.4,40,0.00,,---,0.00,VWS V13.01,2013-03-05 17:33:00,
2013-03-05 12:38:00,34.3,13.1,29.50,WNW,301,4.0,4.0,41,0.00,,---,0.00,VWS V13.01,2013-03-05 17:38:00,
2013-03-05 12:43:00,34.3,13.1,29.50,NNW,333,3.6,3.6,41,0.00,,---,0.00,VWS V13.01,2013-03-05 17:43:00,
2013-03-05 12:48:00,34.5,12.7,29.50,WNW,293,4.0,4.0,40,0.00,,---,0.00,VWS V13.01,2013-03-05 17:48:00,
2013-03-05 12:53:00,34.5,12.7,29.50,NW,321,4.0,4.0,40,0.00,,---,0.00,VWS V13.01,2013-03-05 17:53:00,
2013-03-05 12:58:00,34.3,13.1,29.50,North,357,5.4,5.4,41,0.00,,---,0.00,VWS V13.01,2013-03-05 17:58:00,
2013-03-05 13:03:00,34.5,12.7,29.50,NE,42,6.3,6.3,40,0.00,,---,0.00,VWS V13.01,2013-03-05 18:03:00,
2013-03-05 13:08:00,34.5,12.7,29.50,NE,56,4.9,4.9,40,0.00,,---,0.00,VWS V13.01,2013-03-05 18:08:00,
2013-03-05 13:13:00,34.5,12.7,29.50,NNE,27,3.1,3.1,40,0.00,,---,0.00,VWS V13.01,2013-03-05 18:13:00,
2013-03-05 13:18:00,34.2,12.9,29.50,West,280,2.7,3.6,41,0.00,,---,0.00,VWS V13.01,2013-03-05 18:18:00,
2013-03-05 13:23:00,35.1,13.2,29.50,North,4,5.4,5.4,40,0.00,,---,0.00,VWS V13.01,2013-03-05 18:23:00,
2013-03-05 13:28:00,35.1,13.2,29.50,NE,46,4.0,4.0,40,0.00,,---,0.00,VWS V13.01,2013-03-05 18:28:00,
2013-03-05 13:33:00,33.8,12.6,29.50,NE,34,7.6,7.6,41,0.00,,---,0.00,VWS V13.01,2013-03-05 18:33:00,
2013-03-05 13:38:00,33.6,12.4,29.50,ENE,59,5.4,6.3,41,0.00,,---,0.00,VWS V13.01,2013-03-05 18:38:00,
2013-03-05 13:43:00,33.8,12.6,29.50,East,89,5.8,5.8,41,0.00,,---,0.00,VWS V13.01,2013-03-05 18:43:00,
2013-03-05 13:48:00,33.8,12.6,29.50,NE,48,4.9,4.9,41,0.00,,---,0.00,VWS V13.01,2013-03-05 18:48:00,
2013-03-05 13:53:00,33.8,12.6,29.50,East,100,2.7,2.7,41,0.00,,---,0.00,VWS V13.01,2013-03-05 18:53:00,
2013-03-05 13:58:00,33.8,12.6,29.50,ENE,63,4.0,4.0,41,0.00,,---,0.00,VWS V13.01,2013-03-05 18:58:00,
2013-03-05 14:03:00,33.8,12.6,29.50,NE,46,5.4,5.4,41,0.00,,---,0.00,VWS V13.01,2013-03-05 19:03:00,
2013-03-05 14:08:00,34.0,12.2,29.50,ENE,70,5.8,5.8,40,0.00,,---,0.00,VWS V13.01,2013-03-05 19:08:00,
2013-03-05 14:13:00,33.6,13.0,29.50,NW,305,3.6,3.6,42,0.00,,---,0.00,VWS V13.01,2013-03-05 19:13:00,
2013-03-05 14:18:00,34.0,12.8,29.50,NNE,17,4.0,4.0,41,0.00,,---,0.00,VWS V13.01,2013-03-05 19:18:00,
2013-03-05 14:23:00,34.0,12.8,29.50,ENE,57,5.4,5.4,41,0.00,,---,0.00,VWS V13.01,2013-03-05 19:23:00,
2013-03-05 14:28:00,34.0,12.8,29.50,ENE,67,7.6,7.6,41,0.00,,---,0.00,VWS V13.01,2013-03-05 19:28:00,
2013-03-05 14:33:00,32.5,12.0,29.50,North,0,10.1,10.1,42,0.00,,---,0.00,VWS V13.01,2013-03-05 19:33:00,
2013-03-05 14:38:00,32.5,12.0,29.50,NE,48,5.4,5.4,42,0.00,,---,0.00,VWS V13.01,2013-03-05 19:38:00,
2013-03-05 14:43:00,32.5,12.5,29.50,NE,48,5.4,5.4,43,0.00,,---,0.00,VWS V13.01,2013-03-05 19:43:00,
2013-03-05 14:48:00,32.5,12.5,29.50,NE,48,5.4,5.4,43,0.00,,---,0.00,VWS V13.01,2013-03-05 19:48:00,
2013-03-05 14:53:00,32.5,13.1,29.50,NE,48,5.4,5.4,44,0.00,,---,0.00,VWS V13.01,2013-03-05 19:53:00,
2013-03-05 14:58:00,32.9,12.9,29.50,NE,48,5.4,5.4,43,0.00,,---,0.00,VWS V13.01,2013-03-05 19:58:00,
2013-03-05 15:03:00,32.9,12.9,29.50,NE,48,5.4,5.4,43,0.00,,---,0.00,VWS V13.01,2013-03-05 20:03:00,
2013-03-05 15:08:00,32.5,12.5,29.50,NE,48,5.4,5.4,43,0.00,,---,0.00,VWS V13.01,2013-03-05 20:08:00,
2013-03-05 15:13:00,32.5,12.5,29.50,NE,48,5.4,5.4,43,0.00,,---,0.00,VWS V13.01,2013-03-05 20:13:00,
2013-03-05 15:18:00,32.0,13.1,29.44,ENE,65,12.8,12.8,45,0.00,,---,0.00,VWS V13.01,2013-03-05 20:18:00,
2013-03-05 15:23:00,31.5,12.1,29.44,NE,43,9.6,9.6,44,0.00,,---,0.00,VWS V13.01,2013-03-05 20:23:00,
2013-03-05 15:28:00,31.5,12.1,29.44,North,11,6.3,6.3,44,0.00,,---,0.00,VWS V13.01,2013-03-05 20:28:00,
2013-03-05 15:33:00,31.1,12.2,29.44,NE,54,8.7,8.7,45,0.00,,---,0.00,VWS V13.01,2013-03-05 20:33:00,
2013-03-05 15:38:00,31.1,12.2,29.44,NNE,33,5.4,5.4,45,0.00,,---,0.00,VWS V13.01,2013-03-05 20:38:00,
2013-03-05 15:43:00,31.3,12.9,29.44,NNE,33,6.3,6.3,46,0.00,,---,0.00,VWS V13.01,2013-03-05 20:43:00,
2013-03-05 15:48:00,31.8,12.9,29.44,NNE,31,5.8,5.8,45,0.00,,---,0.00,VWS V13.01,2013-03-05 20:48:00,
2013-03-05 15:53:00,31.8,12.9,29.44,NE,41,7.6,7.6,45,0.00,,---,0.00,VWS V13.01,2013-03-05 20:53:00,
2013-03-05 15:58:00,31.8,12.9,29.44,ENE,60,5.8,5.8,45,0.00,,---,0.00,VWS V13.01,2013-03-05 20:58:00,
2013-03-05 16:03:00,31.8,12.9,29.44,NNE,23,5.8,5.8,45,0.00,,---,0.00,VWS V13.01,2013-03-05 21:03:00,
2013-03-05 16:08:00,30.6,12.7,29.44,NNE,32,8.3,8.3,47,0.00,,---,0.00,VWS V13.01,2013-03-05 21:08:00,
2013-03-05 16:13:00,30.6,12.7,29.44,ENE,70,4.9,4.9,47,0.00,,---,0.00,VWS V13.01,2013-03-05 21:13:00,
2013-03-05 16:18:00,30.6,12.7,29.44,ESE,120,8.7,8.7,47,0.00,,---,0.00,VWS V13.01,2013-03-05 21:18:00,
2013-03-05 16:23:00,30.6,12.7,29.44,NE,34,7.2,7.2,47,0.00,,---,0.00,VWS V13.01,2013-03-05 21:23:00,
2013-03-05 16:28:00,30.6,12.7,29.44,ENE,74,5.4,8.7,47,0.00,,---,0.00,VWS V13.01,2013-03-05 21:28:00,
2013-03-05 16:33:00,31.1,13.7,29.44,NNE,31,5.8,5.8,48,0.00,,---,0.00,VWS V13.01,2013-03-05 21:33:00,
2013-03-05 16:38:00,31.1,13.7,29.44,East,101,5.4,5.4,48,0.00,,---,0.00,VWS V13.01,2013-03-05 21:38:00,
2013-03-05 16:43:00,31.6,13.7,29.44,NNE,18,4.9,4.9,47,0.00,,---,0.00,VWS V13.01,2013-03-05 21:43:00,
2013-03-05 16:48:00,31.5,14.1,29.44,NE,46,5.4,5.4,48,0.00,,---,0.00,VWS V13.01,2013-03-05 21:48:00,
2013-03-05 16:53:00,31.5,14.1,29.44,ESE,106,3.6,5.4,48,0.00,,---,0.00,VWS V13.01,2013-03-05 21:53:00,
2013-03-05 16:58:00,31.3,13.9,29.44,ENE,57,12.8,12.8,48,0.00,,---,0.00,VWS V13.01,2013-03-05 21:58:00,
2013-03-05 17:03:00,31.3,13.9,29.44,NE,55,8.3,8.3,48,0.00,,---,0.00,VWS V13.01,2013-03-05 22:03:00,
2013-03-05 17:07:00,30.7,13.4,29.44,NE,53,10.1,10.1,48,0.00,,---,0.00,VWS V13.01,2013-03-05 22:07:00,
2013-03-05 17:12:00,30.6,13.7,29.44,NE,51,11.0,11.0,49,0.00,,---,0.00,VWS V13.01,2013-03-05 22:12:00,
2013-03-05 17:17:00,30.2,13.8,29.44,East,94,8.3,8.3,50,0.00,,---,0.00,VWS V13.01,2013-03-05 22:17:00,
2013-03-05 17:23:00,30.2,14.3,29.44,ENE,77,8.7,8.7,51,0.00,,---,0.00,VWS V13.01,2013-03-05 22:23:00,
2013-03-05 17:28:00,30.2,14.3,29.44,NE,35,7.6,7.6,51,0.00,,---,0.00,VWS V13.01,2013-03-05 22:28:00,
2013-03-05 17:32:00,30.4,14.4,29.44,North,350,3.6,3.6,51,0.00,,---,0.00,VWS V13.01,2013-03-05 22:32:00,
2013-03-05 17:37:00,30.2,14.3,29.44,ESE,114,3.6,3.6,51,0.00,,---,0.00,VWS V13.01,2013-03-05 22:37:00,
2013-03-05 17:42:00,30.2,14.7,29.44,ESE,114,3.6,3.6,52,0.00,,---,0.00,VWS V13.01,2013-03-05 22:42:00,
2013-03-05 17:47:00,30.0,14.5,29.44,ESE,114,3.6,3.6,52,0.00,,---,0.00,VWS V13.01,2013-03-05 22:47:00,
2013-03-05 17:52:00,30.0,14.5,29.44,ESE,114,3.6,3.6,52,0.00,,---,0.00,VWS V13.01,2013-03-05 22:52:00,
2013-03-05 17:57:00,29.7,15.1,29.44,ESE,114,3.6,3.6,54,0.00,,---,0.00,VWS V13.01,2013-03-05 22:57:00,
2013-03-05 18:02:00,29.7,15.1,29.44,ESE,114,3.6,3.6,54,0.00,,---,0.00,VWS V13.01,2013-03-05 23:02:00,
2013-03-05 18:07:00,29.7,15.1,29.44,ESE,114,3.6,3.6,54,0.00,,---,0.00,VWS V13.01,2013-03-05 23:07:00,
2013-03-05 18:12:00,29.3,15.1,29.44,ESE,114,3.6,3.6,55,0.00,,---,0.00,VWS V13.01,2013-03-05 23:12:00,
2013-03-05 18:17:00,29.3,15.1,29.44,ESE,114,3.6,3.6,55,0.00,,---,0.00,VWS V13.01,2013-03-05 23:17:00,
2013-03-05 18:22:00,29.1,15.4,29.44,NE,38,5.4,5.4,56,0.00,,---,0.00,VWS V13.01,2013-03-05 23:22:00,
2013-03-05 18:27:00,29.1,15.8,29.44,ENE,58,5.4,5.4,57,0.00,,---,0.00,VWS V13.01,2013-03-05 23:27:00,
2013-03-05 18:32:00,29.1,15.8,29.44,ENE,70,4.9,4.9,57,0.00,,---,0.00,VWS V13.01,2013-03-05 23:32:00,
2013-03-05 18:37:00,28.9,15.6,29.44,NNE,17,5.4,5.4,57,0.00,,---,0.00,VWS V13.01,2013-03-05 23:37:00,
2013-03-05 18:42:00,28.9,15.6,29.44,NE,46,6.3,6.3,57,0.00,,---,0.00,VWS V13.01,2013-03-05 23:42:00,
2013-03-05 18:47:00,28.9,15.6,29.44,NE,47,6.3,6.3,57,0.00,,---,0.00,VWS V13.01,2013-03-05 23:47:00,
2013-03-05 18:52:00,28.6,15.7,29.44,ESE,114,2.7,2.7,58,0.00,,---,0.00,VWS V13.01,2013-03-05 23:52:00,
2013-03-05 18:57:00,28.6,15.7,29.44,East,90,7.6,7.6,58,0.00,,---,0.00,VWS V13.01,2013-03-05 23:57:00,
2013-03-05 19:02:00,28.6,15.7,29.44,North,1,5.8,5.8,58,0.00,,---,0.00,VWS V13.01,2013-03-06 00:02:00,
2013-03-05 19:07:00,28.6,15.7,29.44,North,11,4.0,4.0,58,0.00,,---,0.00,VWS V13.01,2013-03-06 00:07:00,
2013-03-05 19:12:00,28.0,16.7,29.44,NE,49,5.4,5.4,62,0.00,,---,0.00,VWS V13.01,2013-03-06 00:12:00,
2013-03-05 19:17:00,27.9,16.5,29.44,ESE,109,5.8,5.8,62,0.00,,---,0.00,VWS V13.01,2013-03-06 00:17:00,
2013-03-05 19:22:00,27.9,16.5,29.44,NE,52,8.1,8.1,62,0.00,,---,0.00,VWS V13.01,2013-03-06 00:22:00,
2013-03-05 19:27:00,27.9,16.5,29.44,East,84,6.3,6.3,62,0.00,,---,0.00,VWS V13.01,2013-03-06 00:27:00,
2013-03-05 19:32:00,27.9,16.9,29.44,East,82,5.8,5.8,63,0.00,,---,0.00,VWS V13.01,2013-03-06 00:32:00,
2013-03-05 19:37:00,27.9,16.9,29.44,East,87,6.3,6.3,63,0.00,,---,0.00,VWS V13.01,2013-03-06 00:37:00,
2013-03-05 19:42:00,27.7,17.1,29.44,ESE,115,5.4,5.4,64,0.00,,---,0.00,VWS V13.01,2013-03-06 00:42:00,
2013-03-05 19:47:00,27.7,16.7,29.44,NE,48,8.1,8.1,63,0.00,,---,0.00,VWS V13.01,2013-03-06 00:47:00,
2013-03-05 19:52:00,27.7,16.7,29.44,East,98,6.3,7.6,63,0.00,,---,0.00,VWS V13.01,2013-03-06 00:52:00,
2013-03-05 19:57:00,27.7,16.7,29.44,ESE,121,8.1,8.1,63,0.00,,---,0.00,VWS V13.01,2013-03-06 00:57:00,
2013-03-05 20:02:00,27.7,17.1,29.44,East,79,6.3,6.3,64,0.00,,---,0.00,VWS V13.01,2013-03-06 01:02:00,
2013-03-05 20:07:00,27.7,17.1,29.44,East,82,8.3,8.3,64,0.00,,---,0.00,VWS V13.01,2013-03-06 01:07:00,
2013-03-05 20:12:00,27.7,16.7,29.44,East,84,5.4,5.4,63,0.00,,---,0.00,VWS V13.01,2013-03-06 01:12:00,
2013-03-05 20:17:00,27.5,16.6,29.44,NE,55,4.9,4.9,63,0.00,,---,0.00,VWS V13.01,2013-03-06 01:17:00,
2013-03-05 20:22:00,27.5,16.9,29.44,East,80,2.7,2.7,64,0.00,,---,0.00,VWS V13.01,2013-03-06 01:22:00,
2013-03-05 20:27:00,27.3,16.8,29.44,ESE,108,4.9,4.9,64,0.00,,---,0.00,VWS V13.01,2013-03-06 01:27:00,
2013-03-05 20:32:00,27.3,17.1,29.38,NNE,30,4.0,4.0,65,0.00,,---,0.00,VWS V13.01,2013-03-06 01:32:00,
2013-03-05 20:37:00,27.3,17.1,29.38,North,9,5.4,5.4,65,0.00,,---,0.00,VWS V13.01,2013-03-06 01:37:00,
2013-03-05 20:42:00,27.3,17.1,29.38,NE,54,0.0,0.0,65,0.00,,---,0.00,VWS V13.01,2013-03-06 01:42:00,
2013-03-05 20:47:00,27.1,17.0,29.38,NE,54,0.0,0.0,65,0.00,,---,0.00,VWS V13.01,2013-03-06 01:47:00,
2013-03-05 20:52:00,27.3,17.1,29.38,NE,54,0.0,0.0,65,0.00,,---,0.00,VWS V13.01,2013-03-06 01:52:00,
2013-03-05 20:57:00,27.3,17.1,29.38,NE,54,0.0,0.0,65,0.00,,---,0.00,VWS V13.01,2013-03-06 01:57:00,
2013-03-05 21:02:00,27.3,17.1,29.38,NE,54,0.0,0.0,65,0.00,,---,0.00,VWS V13.01,2013-03-06 02:02:00,
2013-03-05 21:07:00,27.3,17.5,29.38,NE,48,3.6,3.6,66,0.00,,---,0.00,VWS V13.01,2013-03-06 02:07:00,
2013-03-05 21:12:00,27.1,17.3,29.38,NE,48,3.6,3.6,66,0.00,,---,0.00,VWS V13.01,2013-03-06 02:12:00,
2013-03-05 21:17:00,27.1,17.3,29.38,NE,48,3.6,3.6,66,0.00,,---,0.00,VWS V13.01,2013-03-06 02:17:00,
2013-03-05 21:22:00,27.0,17.1,29.38,NE,36,4.0,4.0,66,0.00,,---,0.00,VWS V13.01,2013-03-06 02:22:00,
2013-03-05 21:27:00,27.0,17.1,29.38,SE,129,3.6,4.0,66,0.00,,---,0.00,VWS V13.01,2013-03-06 02:27:00,
2013-03-05 21:32:00,27.0,17.1,29.38,ESE,115,8.1,8.1,66,0.00,,---,0.00,VWS V13.01,2013-03-06 02:32:00,
2013-03-05 21:37:00,27.0,17.1,29.38,NE,34,2.7,2.7,66,0.00,,---,0.00,VWS V13.01,2013-03-06 02:37:00,
2013-03-05 21:42:00,27.0,17.1,29.38,North,7,0.0,0.0,66,0.00,,---,0.00,VWS V13.01,2013-03-06 02:42:00,
2013-03-05 21:47:00,27.0,17.1,29.38,North,7,0.0,0.0,66,0.00,,---,0.00,VWS V13.01,2013-03-06 02:47:00,
2013-03-05 21:52:00,27.1,17.0,29.38,ENE,58,5.8,5.8,65,0.00,,---,0.00,VWS V13.01,2013-03-06 02:52:00,
2013-03-05 21:57:00,27.1,17.0,29.38,East,101,3.1,3.1,65,0.00,,---,0.00,VWS V13.01,2013-03-06 02:57:00,
2013-03-05 22:02:00,27.1,16.6,29.38,ENE,66,4.0,4.0,64,0.00,,---,0.00,VWS V13.01,2013-03-06 03:02:00,
2013-03-05 22:07:00,27.1,16.6,29.38,SE,129,3.1,3.1,64,0.00,,---,0.00,VWS V13.01,2013-03-06 03:07:00,
2013-03-05 22:12:00,27.1,17.0,29.38,East,80,3.6,3.6,65,0.00,,---,0.00,VWS V13.01,2013-03-06 03:12:00,
2013-03-05 22:17:00,27.1,17.0,29.38,ENE,65,4.9,4.9,65,0.00,,---,0.00,VWS V13.01,2013-03-06 03:17:00,
2013-03-05 22:22:00,27.1,16.6,29.38,ENE,65,4.9,4.9,64,0.00,,---,0.00,VWS V13.01,2013-03-06 03:22:00,
2013-03-05 22:27:00,27.1,16.6,29.38,ENE,65,4.0,10.1,64,0.00,,---,0.00,VWS V13.01,2013-03-06 03:27:00,
2013-03-05 22:32:00,27.1,16.6,29.38,ESE,118,3.6,3.6,64,0.00,,---,0.00,VWS V13.01,2013-03-06 03:32:00,
2013-03-05 22:37:00,27.1,17.0,29.38,SE,138,3.1,3.1,65,0.00,,---,0.00,VWS V13.01,2013-03-06 03:37:00,
2013-03-05 22:42:00,27.1,17.0,29.38,East,91,6.3,6.3,65,0.00,,---,0.00,VWS V13.01,2013-03-06 03:42:00,
2013-03-05 22:47:00,27.1,17.0,29.38,East,97,3.1,3.1,65,0.00,,---,0.00,VWS V13.01,2013-03-06 03:47:00,
2013-03-05 22:52:00,27.0,16.8,29.38,East,97,4.0,4.0,65,0.00,,---,0.00,VWS V13.01,2013-03-06 03:52:00,
2013-03-05 22:57:00,27.0,17.1,29.38,East,97,4.0,4.0,66,0.00,,---,0.00,VWS V13.01,2013-03-06 03:57:00,
2013-03-05 23:02:00,27.1,17.3,29.38,East,98,5.8,5.8,66,0.00,,---,0.00,VWS V13.01,2013-03-06 04:02:00,
2013-03-05 23:07:00,27.1,17.3,29.38,ENE,73,4.0,4.0,66,0.00,,---,0.00,VWS V13.01,2013-03-06 04:07:00,
2013-03-05 23:12:00,27.0,16.8,29.38,ENE,78,4.0,4.0,65,0.00,,---,0.00,VWS V13.01,2013-03-06 04:12:00,
2013-03-05 23:17:00,27.0,16.8,29.38,ENE,78,4.0,4.0,65,0.00,,---,0.00,VWS V13.01,2013-03-06 04:17:00,
2013-03-05 23:22:00,26.8,16.6,29.35,East,89,4.0,4.0,65,0.00,,---,0.00,VWS V13.01,2013-03-06 04:22:00,
2013-03-05 23:27:00,26.8,16.6,29.35,ENE,57,3.1,3.1,65,0.00,,---,0.00,VWS V13.01,2013-03-06 04:27:00,
2013-03-05 23:32:00,26.8,16.6,29.35,ENE,57,3.1,3.1,65,0.00,,---,0.00,VWS V13.01,2013-03-06 04:32:00,
2013-03-05 23:37:00,26.8,16.6,29.35,ENE,57,3.1,3.1,65,0.00,,---,0.00,VWS V13.01,2013-03-06 04:37:00,
2013-03-05 23:42:00,26.8,16.6,29.35,ENE,57,3.1,3.1,65,0.00,,---,0.00,VWS V13.01,2013-03-06 04:42:00,
2013-03-05 23:47:00,26.8,16.6,29.35,SE,145,3.1,3.1,65,0.00,,---,0.00,VWS V13.01,2013-03-06 04:47:00,
2013-03-05 23:52:00,26.8,16.6,29.35,SE,145,3.1,3.1,65,0.00,,---,0.00,VWS V13.01,2013-03-06 04:52:00,
2013-03-05 23:57:00,26.8,16.6,29.35,SE,145,3.1,3.1,65,0.00,,---,0.00,VWS V13.01,2013-03-06 04:57:00,